createdAt,value
2023-01-31T00:01:37.459Z,18.98
2023-01-31T00:03:46.083Z,17.65
2023-01-31T00:05:51.005Z,15.95
2023-01-31T00:07:56.344Z,16.33
2023-01-31T00:10:02.386Z,25.55
2023-01-31T00:12:07.692Z,21.10
2023-01-31T00:14:13.894Z,26.33
2023-01-31T00:16:20.903Z,16.55
2023-01-31T00:18:26.174Z,19.85
2023-01-31T00:20:33.777Z,21.00
2023-01-31T00:22:39.034Z,15.93
2023-01-31T00:24:43.941Z,21.23
2023-01-31T00:26:56.880Z,18.90
2023-01-31T00:29:07.516Z,26.00
2023-01-31T00:31:14.672Z,17.65
2023-01-31T00:33:20.012Z,18.88
2023-01-31T00:35:25.051Z,20.10
2023-01-31T00:37:32.573Z,22.30
2023-01-31T00:39:38.776Z,13.02
2023-01-31T00:41:44.400Z,25.67
2023-01-31T00:43:51.265Z,19.42
2023-01-31T00:45:56.193Z,18.85
2023-01-31T00:48:02.414Z,22.23
2023-01-31T00:50:08.654Z,23.35
2023-01-31T00:52:13.897Z,18.40
2023-01-31T00:54:22.264Z,22.60
2023-01-31T00:56:28.292Z,17.50
2023-01-31T00:58:33.776Z,13.68
2023-01-31T01:00:39.330Z,18.45
2023-01-31T01:02:44.638Z,17.98
2023-01-31T01:04:49.891Z,18.15
2023-01-31T01:06:55.205Z,14.60
2023-01-31T01:09:01.999Z,14.40
2023-01-31T01:11:16.775Z,14.77
2023-01-31T01:13:21.701Z,14.07
2023-01-31T01:15:26.626Z,18.35
2023-01-31T01:17:31.935Z,17.50
2023-01-31T01:19:36.807Z,24.58
2023-01-31T01:21:45.098Z,21.10
2023-01-31T01:23:50.863Z,17.10
2023-01-31T01:25:56.487Z,16.25
2023-01-31T01:28:03.912Z,17.40
2023-01-31T01:30:11.896Z,19.73
2023-01-31T01:32:16.795Z,21.95
2023-01-31T01:34:22.727Z,18.23
2023-01-31T01:36:28.388Z,20.05
2023-01-31T01:38:33.669Z,21.70
2023-01-31T01:40:39.947Z,19.92
2023-01-31T01:42:44.806Z,18.02
2023-01-31T01:44:55.993Z,15.07
2023-01-31T01:47:03.724Z,20.48
2023-01-31T01:49:18.833Z,16.77
2023-01-31T01:51:24.871Z,17.15
2023-01-31T01:53:31.883Z,17.48
2023-01-31T01:55:42.371Z,23.35
2023-01-31T01:57:50.092Z,21.90
2023-01-31T02:00:10.460Z,21.00
2023-01-31T02:02:19.877Z,23.55
2023-01-31T02:04:34.871Z,20.05
2023-01-31T02:06:40.373Z,14.43
2023-01-31T02:08:46.425Z,17.05
2023-01-31T02:10:59.040Z,20.35
2023-01-31T02:13:05.139Z,14.93
2023-01-31T02:15:13.948Z,15.82
2023-01-31T02:17:21.987Z,17.58
2023-01-31T02:19:42.051Z,20.70
2023-01-31T02:22:16.835Z,16.17
2023-01-31T02:24:50.702Z,23.17
2023-01-31T02:27:28.966Z,20.25
2023-01-31T02:30:25.629Z,16.95
2023-01-31T02:33:03.377Z,24.02
2023-01-31T02:35:18.147Z,19.58
2023-01-31T02:37:35.076Z,17.92
2023-01-31T02:39:51.749Z,13.35
2023-01-31T02:42:07.069Z,15.93
2023-01-31T02:44:36.961Z,10.93
2023-01-31T02:46:58.156Z,17.88
2023-01-31T02:49:13.094Z,18.23
2023-01-31T02:51:24.110Z,14.63
2023-01-31T02:56:00.488Z,18.92
2023-01-31T02:58:10.099Z,17.17
2023-01-31T03:00:18.112Z,10.13
2023-01-31T03:02:23.681Z,18.58
2023-01-31T03:04:36.989Z,20.35
2023-01-31T03:07:01.116Z,15.40
2023-01-31T03:09:22.263Z,13.68
2023-01-31T03:11:39.422Z,11.20
2023-01-31T03:14:01.063Z,13.05
2023-01-31T03:16:33.159Z,8.32
2023-01-31T03:18:46.844Z,14.30
2023-01-31T03:21:01.670Z,18.25
2023-01-31T03:23:13.961Z,19.92
2023-01-31T03:25:25.175Z,11.68
2023-01-31T03:27:34.958Z,15.68
2023-01-31T03:29:43.414Z,16.00
2023-01-31T03:31:57.437Z,16.85
2023-01-31T03:34:06.688Z,16.80
2023-01-31T03:36:28.789Z,13.65
2023-01-31T03:38:51.457Z,18.38
2023-01-31T03:41:01.299Z,14.80
2023-01-31T03:43:16.100Z,13.98
2023-01-31T03:45:33.432Z,10.05
2023-01-31T03:47:42.546Z,16.10
2023-01-31T03:49:51.993Z,20.23
2023-01-31T03:52:06.989Z,13.73
2023-01-31T03:54:17.579Z,14.98
2023-01-31T03:56:29.703Z,18.40
2023-01-31T03:58:41.008Z,16.52
2023-01-31T04:00:47.523Z,12.95
2023-01-31T04:02:58.733Z,14.90
2023-01-31T04:05:11.531Z,15.50
2023-01-31T04:07:22.346Z,11.73
2023-01-31T04:09:27.613Z,18.35
2023-01-31T04:11:32.914Z,11.93
2023-01-31T04:13:38.456Z,16.52
2023-01-31T04:15:44.124Z,16.15
2023-01-31T04:17:49.099Z,9.50
2023-01-31T04:19:54.010Z,16.67
2023-01-31T04:21:58.950Z,13.23
2023-01-31T04:24:07.578Z,9.85
2023-01-31T04:26:12.954Z,9.73
2023-01-31T04:28:17.848Z,10.48
2023-01-31T04:30:23.112Z,12.32
2023-01-31T04:32:28.103Z,15.27
2023-01-31T04:34:33.313Z,15.13
2023-01-31T04:36:39.106Z,13.20
2023-01-31T04:38:43.958Z,9.70
2023-01-31T04:40:51.392Z,16.90
2023-01-31T04:42:57.269Z,21.05
2023-01-31T04:45:02.701Z,11.15
2023-01-31T04:47:08.047Z,12.23
2023-01-31T04:49:14.202Z,13.85
2023-01-31T04:51:19.063Z,15.05
2023-01-31T04:53:24.593Z,17.67
2023-01-31T04:55:30.024Z,18.30
2023-01-31T04:57:37.473Z,12.73
2023-01-31T04:59:42.758Z,16.77
2023-01-31T05:01:48.021Z,13.43
2023-01-31T05:03:53.051Z,12.15
2023-01-31T05:08:06.724Z,18.77
2023-01-31T05:10:14.075Z,11.85
2023-01-31T05:12:19.683Z,19.52
2023-01-31T05:14:27.436Z,23.58
2023-01-31T05:16:33.133Z,20.65
2023-01-31T05:18:38.257Z,26.17
2023-01-31T05:20:43.856Z,14.38
2023-01-31T05:22:51.832Z,20.15
2023-01-31T05:24:58.485Z,19.35
2023-01-31T05:27:05.525Z,22.27
2023-01-31T05:29:11.241Z,21.85
2023-01-31T05:31:19.080Z,14.95
2023-01-31T05:33:23.963Z,16.80
2023-01-31T05:35:28.997Z,17.83
2023-01-31T05:37:34.216Z,12.32
2023-01-31T05:39:40.346Z,20.60
2023-01-31T05:41:45.436Z,16.00
2023-01-31T05:43:50.309Z,21.27
2023-01-31T05:45:55.372Z,22.88
2023-01-31T05:48:03.715Z,14.93
2023-01-31T05:50:10.067Z,16.40
2023-01-31T05:52:15.890Z,17.35
2023-01-31T05:54:20.741Z,14.10
2023-01-31T05:56:26.639Z,11.07
2023-01-31T05:58:32.053Z,22.98
2023-01-31T06:00:37.433Z,17.98
2023-01-31T06:02:42.337Z,13.30
2023-01-31T06:04:50.903Z,19.42
2023-01-31T06:06:56.156Z,20.00
2023-01-31T06:09:01.435Z,19.08
2023-01-31T06:11:07.452Z,22.55
2023-01-31T06:13:12.327Z,17.33
2023-01-31T06:15:18.192Z,27.38
2023-01-31T06:17:24.046Z,23.05
2023-01-31T06:19:30.700Z,24.50
2023-01-31T06:21:40.949Z,25.90
2023-01-31T06:23:47.883Z,30.05
2023-01-31T06:25:54.089Z,25.67
2023-01-31T06:27:59.688Z,23.15
2023-01-31T06:30:04.646Z,18.65
2023-01-31T06:32:09.553Z,21.38
2023-01-31T06:34:14.744Z,23.67
2023-01-31T06:36:20.123Z,27.52
2023-01-31T06:38:27.611Z,25.85
2023-01-31T06:40:37.303Z,28.42
2023-01-31T06:42:42.534Z,25.85
2023-01-31T06:44:47.430Z,31.92
2023-01-31T06:46:52.719Z,26.15
2023-01-31T06:48:57.741Z,26.30
2023-01-31T06:51:03.712Z,22.58
2023-01-31T06:53:09.254Z,32.92
2023-01-31T06:55:18.371Z,28.90
2023-01-31T06:57:23.459Z,29.60
2023-01-31T06:59:28.347Z,26.10
2023-01-31T07:01:33.300Z,26.38
2023-01-31T07:03:38.368Z,29.88
2023-01-31T07:05:43.324Z,32.83
2023-01-31T07:07:49.829Z,26.20
2023-01-31T07:09:55.277Z,26.95
2023-01-31T07:12:03.144Z,40.15
2023-01-31T07:14:09.133Z,28.48
2023-01-31T07:16:17.056Z,29.35
2023-01-31T07:18:22.395Z,28.98
2023-01-31T07:20:28.663Z,31.40
2023-01-31T07:22:33.748Z,33.47
2023-01-31T07:24:38.687Z,25.90
2023-01-31T07:26:43.918Z,32.55
2023-01-31T07:28:51.713Z,25.02
2023-01-31T07:30:57.174Z,22.02
2023-01-31T07:33:03.778Z,30.15
2023-01-31T07:35:11.122Z,27.70
2023-01-31T07:37:16.090Z,24.38
2023-01-31T07:39:21.777Z,36.92
2023-01-31T07:41:28.549Z,27.05
2023-01-31T07:43:35.564Z,32.00
2023-01-31T07:45:43.687Z,23.02
2023-01-31T07:47:48.736Z,28.15
2023-01-31T07:49:54.227Z,21.17
2023-01-31T07:51:59.895Z,26.92
2023-01-31T07:54:05.446Z,25.85
2023-01-31T07:56:14.594Z,23.33
2023-01-31T07:58:20.721Z,17.80
2023-01-31T08:00:39.341Z,43.88
2023-01-31T08:03:00.116Z,27.75
2023-01-31T08:05:06.354Z,19.40
2023-01-31T08:07:11.991Z,22.67
2023-01-31T08:09:17.843Z,17.73
2023-01-31T08:11:22.797Z,16.42
2023-01-31T08:13:27.771Z,19.60
2023-01-31T08:15:33.029Z,22.38
2023-01-31T08:17:38.070Z,27.77
2023-01-31T08:19:46.104Z,34.90
2023-01-31T08:21:51.134Z,21.85
2023-01-31T08:23:56.004Z,19.67
2023-01-31T08:26:06.123Z,17.17
2023-01-31T08:28:11.540Z,22.35
2023-01-31T08:30:17.683Z,17.52
2023-01-31T08:32:23.810Z,20.92
2023-01-31T08:34:29.253Z,20.48
2023-01-31T08:36:36.920Z,20.48
2023-01-31T08:38:42.200Z,16.05
2023-01-31T08:40:47.933Z,21.77
2023-01-31T08:43:00.622Z,22.23
2023-01-31T08:45:07.325Z,18.35
2023-01-31T08:47:12.550Z,29.90
2023-01-31T08:49:18.469Z,23.58
2023-01-31T08:51:23.382Z,31.13
2023-01-31T08:53:31.062Z,25.35
2023-01-31T08:55:40.123Z,16.50
2023-01-31T08:57:58.936Z,19.25
2023-01-31T09:00:06.379Z,23.67
2023-01-31T09:02:13.964Z,19.70
2023-01-31T09:04:18.891Z,19.65
2023-01-31T09:06:26.964Z,22.08
2023-01-31T09:08:34.865Z,28.15
2023-01-31T09:10:40.807Z,25.83
2023-01-31T09:12:45.712Z,22.45
2023-01-31T09:14:52.985Z,21.67
2023-01-31T09:16:57.952Z,24.17
2023-01-31T09:19:02.905Z,21.17
2023-01-31T09:21:09.128Z,18.42
2023-01-31T09:23:14.057Z,21.88
2023-01-31T09:25:37.479Z,21.75
2023-01-31T09:27:47.243Z,20.48
2023-01-31T09:29:52.127Z,21.95
2023-01-31T09:31:57.500Z,18.52
2023-01-31T09:34:02.417Z,25.25
2023-01-31T09:36:11.354Z,18.45
2023-01-31T09:38:16.816Z,19.98
2023-01-31T09:40:28.471Z,19.58
2023-01-31T09:42:39.515Z,22.70
2023-01-31T09:44:48.541Z,22.52
2023-01-31T09:46:59.123Z,19.27
2023-01-31T09:49:13.424Z,15.48
2023-01-31T09:51:20.710Z,8.77
2023-01-31T09:53:29.020Z,22.92
2023-01-31T09:55:47.837Z,15.38
2023-01-31T09:58:03.724Z,20.08
2023-01-31T10:00:25.887Z,21.88
2023-01-31T10:02:55.061Z,16.50
2023-01-31T10:05:16.544Z,16.17
2023-01-31T10:07:31.866Z,18.13
2023-01-31T10:09:43.496Z,23.50
2023-01-31T10:11:56.848Z,17.73
2023-01-31T10:14:09.385Z,21.73
2023-01-31T10:16:24.572Z,18.20
2023-01-31T10:18:34.901Z,23.10
2023-01-31T10:20:45.944Z,18.92
2023-01-31T10:23:02.502Z,23.73
2023-01-31T10:25:22.847Z,25.63
2023-01-31T10:27:45.528Z,21.83
2023-01-31T10:29:57.107Z,13.38
2023-01-31T10:32:06.376Z,17.90
2023-01-31T10:34:17.669Z,19.35
2023-01-31T10:36:31.716Z,22.27
2023-01-31T10:38:43.920Z,21.90
2023-01-31T10:40:56.094Z,16.92
2023-01-31T10:43:15.338Z,18.43
2023-01-31T10:45:23.272Z,24.88
2023-01-31T10:47:36.711Z,25.17
2023-01-31T10:49:41.766Z,20.63
2023-01-31T10:52:04.637Z,26.40
2023-01-31T10:54:26.586Z,20.25
2023-01-31T10:56:37.866Z,24.48
2023-01-31T10:58:46.703Z,25.15
2023-01-31T11:00:52.174Z,22.77
2023-01-31T11:02:57.673Z,29.50
2023-01-31T11:05:03.489Z,27.25
2023-01-31T11:07:08.501Z,26.20
2023-01-31T11:09:14.830Z,20.63
2023-01-31T11:11:23.629Z,28.00
2023-01-31T11:13:29.495Z,28.30
2023-01-31T11:15:43.483Z,23.48
2023-01-31T11:17:50.355Z,25.02
2023-01-31T11:19:59.079Z,28.00
2023-01-31T11:22:05.137Z,26.40
2023-01-31T11:24:20.665Z,23.45
2023-01-31T11:26:33.197Z,24.95
2023-01-31T11:28:40.887Z,24.90
2023-01-31T11:30:52.916Z,24.55
2023-01-31T11:32:58.440Z,23.25
2023-01-31T11:35:06.839Z,32.78
2023-01-31T11:37:19.523Z,29.02
2023-01-31T11:39:34.467Z,22.10
2023-01-31T11:41:40.443Z,24.92
2023-01-31T11:43:45.336Z,23.77
2023-01-31T11:46:03.190Z,23.30
2023-01-31T11:48:21.101Z,25.25
2023-01-31T11:50:30.012Z,23.20
2023-01-31T11:52:37.664Z,22.92
2023-01-31T11:54:49.090Z,26.80
2023-01-31T11:56:55.894Z,23.88
2023-01-31T11:59:08.085Z,21.42
2023-01-31T12:01:21.125Z,16.67
2023-01-31T12:03:27.431Z,23.63
2023-01-31T12:05:40.627Z,24.58
2023-01-31T12:07:50.303Z,25.85
2023-01-31T12:09:56.053Z,31.95
2023-01-31T12:12:07.733Z,23.70
2023-01-31T12:14:17.486Z,19.42
2023-01-31T12:16:28.547Z,22.10
2023-01-31T12:19:00.684Z,25.38
2023-01-31T12:21:16.247Z,26.20
2023-01-31T12:23:34.812Z,26.80
2023-01-31T12:25:58.419Z,32.10
2023-01-31T12:28:17.042Z,28.95
2023-01-31T12:31:06.071Z,27.77
2023-01-31T12:33:46.881Z,27.58
2023-01-31T12:36:10.646Z,26.25
2023-01-31T12:38:31.754Z,22.73
2023-01-31T12:40:46.384Z,29.50
2023-01-31T12:43:00.919Z,29.17
2023-01-31T12:45:24.522Z,21.73
2023-01-31T12:48:05.165Z,29.23
2023-01-31T12:50:33.719Z,27.92
2023-01-31T12:52:49.439Z,26.13
2023-01-31T12:55:07.879Z,26.02
2023-01-31T12:57:30.970Z,31.23
2023-01-31T13:02:00.162Z,27.73
2023-01-31T13:04:37.919Z,24.55
2023-01-31T13:06:49.362Z,30.95
2023-01-31T13:09:07.882Z,30.42
2023-01-31T13:11:20.867Z,22.73
2023-01-31T13:13:30.759Z,26.63
2023-01-31T13:15:46.321Z,25.25
2023-01-31T13:18:00.546Z,26.85
2023-01-31T13:20:25.800Z,23.75
2023-01-31T13:22:42.013Z,30.67
2023-01-31T13:24:52.950Z,28.20
2023-01-31T13:27:02.603Z,17.65
2023-01-31T13:29:14.583Z,24.15
2023-01-31T13:31:26.117Z,26.50
2023-01-31T13:33:39.857Z,20.98
2023-01-31T13:35:46.299Z,24.77
2023-01-31T13:38:00.973Z,22.75
2023-01-31T13:40:19.633Z,21.25
2023-01-31T13:42:24.655Z,21.95
2023-01-31T13:44:30.139Z,20.08
2023-01-31T13:46:41.629Z,17.48
2023-01-31T13:48:54.415Z,18.50
2023-01-31T13:51:06.133Z,25.77
2023-01-31T13:53:19.899Z,23.20
2023-01-31T13:55:30.389Z,16.30
2023-01-31T13:57:47.155Z,16.55
2023-01-31T13:59:57.465Z,16.13
2023-01-31T14:02:08.136Z,20.80
2023-01-31T14:04:40.277Z,15.32
2023-01-31T14:07:23.236Z,19.27
2023-01-31T14:09:33.381Z,19.13
2023-01-31T14:11:46.810Z,20.90
2023-01-31T14:13:53.502Z,16.58
2023-01-31T14:16:01.718Z,21.63
2023-01-31T14:18:07.216Z,15.90
2023-01-31T14:20:30.022Z,18.75
2023-01-31T14:22:41.404Z,16.65
2023-01-31T14:25:16.583Z,20.63
2023-01-31T14:27:25.536Z,17.92
2023-01-31T14:29:30.746Z,21.77
2023-01-31T14:31:36.396Z,20.08
2023-01-31T14:33:48.732Z,19.75
2023-01-31T14:36:39.443Z,22.23
2023-01-31T14:39:06.220Z,18.35
2023-01-31T14:41:27.639Z,24.17
2023-01-31T14:43:51.641Z,22.42
2023-01-31T14:46:35.706Z,16.77
2023-01-31T14:49:06.031Z,12.30
2023-01-31T14:51:21.702Z,12.85
2023-01-31T14:53:53.986Z,16.05
2023-01-31T14:56:18.926Z,17.98
2023-01-31T14:58:29.445Z,14.82
2023-01-31T15:00:39.016Z,14.63
2023-01-31T15:02:54.366Z,13.73
2023-01-31T15:05:01.905Z,12.15
2023-01-31T15:07:08.042Z,17.42
2023-01-31T15:09:40.120Z,14.10
2023-01-31T15:11:49.198Z,10.95
2023-01-31T15:13:56.038Z,12.00
2023-01-31T15:16:01.299Z,11.98
2023-01-31T15:18:16.149Z,10.68
2023-01-31T15:20:26.270Z,10.77
2023-01-31T15:22:33.321Z,13.27
2023-01-31T15:24:42.284Z,13.80
2023-01-31T15:26:53.422Z,15.55
2023-01-31T15:29:00.619Z,13.88
2023-01-31T15:31:15.837Z,13.32
2023-01-31T15:33:28.287Z,12.77
2023-01-31T15:35:38.219Z,14.32
2023-01-31T15:37:44.690Z,10.20
2023-01-31T15:39:58.172Z,12.73
2023-01-31T15:42:26.401Z,13.40
2023-01-31T15:44:31.754Z,15.57
2023-01-31T15:46:37.335Z,13.40
2023-01-31T15:48:45.706Z,16.50
2023-01-31T15:50:54.521Z,12.95
2023-01-31T15:53:04.511Z,10.38
2023-01-31T15:55:11.687Z,11.75
2023-01-31T15:57:20.364Z,13.00
2023-01-31T15:59:35.778Z,12.50
2023-01-31T16:01:41.005Z,9.47
2023-01-31T16:03:55.414Z,9.52
2023-01-31T16:06:03.741Z,10.43
2023-01-31T16:08:21.923Z,10.23
2023-01-31T16:10:29.837Z,10.07
2023-01-31T16:12:43.004Z,12.48
2023-01-31T16:17:00.530Z,12.68
2023-01-31T16:19:07.190Z,9.77
2023-01-31T16:21:29.080Z,12.55
2023-01-31T16:23:36.284Z,12.63
2023-01-31T16:25:41.494Z,11.50
2023-01-31T16:27:48.976Z,11.20
2023-01-31T16:29:59.119Z,15.45
2023-01-31T16:32:04.305Z,10.73
2023-01-31T16:34:25.375Z,14.55
2023-01-31T16:36:34.910Z,13.75
2023-01-31T16:38:43.312Z,14.43
2023-01-31T16:40:52.224Z,14.25
2023-01-31T16:43:21.491Z,16.23
2023-01-31T16:45:36.098Z,16.45
2023-01-31T16:47:52.214Z,18.35
2023-01-31T16:50:43.700Z,14.27
2023-01-31T16:52:51.731Z,16.70
2023-01-31T16:55:02.957Z,15.38
2023-01-31T16:57:23.567Z,14.95
2023-01-31T16:59:52.234Z,14.65
2023-01-31T17:02:05.417Z,15.73
2023-01-31T17:04:20.841Z,13.65
2023-01-31T17:06:25.896Z,13.50
2023-01-31T17:08:30.866Z,11.10
2023-01-31T17:10:37.966Z,14.68
2023-01-31T17:12:43.187Z,9.40
2023-01-31T17:14:53.002Z,11.65
2023-01-31T17:16:58.905Z,12.32
2023-01-31T17:19:03.838Z,11.95
2023-01-31T17:21:09.705Z,10.73
2023-01-31T17:23:15.932Z,10.00
2023-01-31T17:25:23.986Z,12.48
2023-01-31T17:27:29.585Z,13.10
2023-01-31T17:29:34.521Z,11.63
2023-01-31T17:31:42.866Z,14.43
2023-01-31T17:33:47.840Z,13.10
2023-01-31T17:35:53.090Z,11.73
2023-01-31T17:37:58.342Z,15.63
2023-01-31T17:40:03.630Z,15.00
2023-01-31T17:42:08.974Z,13.73
2023-01-31T17:44:16.954Z,13.20
2023-01-31T17:46:22.971Z,14.65
2023-01-31T17:48:30.477Z,15.50
2023-01-31T17:50:35.487Z,16.73
2023-01-31T17:52:40.387Z,10.40
2023-01-31T17:54:45.246Z,13.57
2023-01-31T17:56:52.253Z,18.67
2023-01-31T17:58:58.089Z,20.63
2023-01-31T18:01:03.271Z,16.08
2023-01-31T18:03:08.405Z,14.77
2023-01-31T18:05:30.259Z,17.45
2023-01-31T18:07:43.588Z,12.05
2023-01-31T18:09:48.524Z,13.35
2023-01-31T18:11:53.623Z,13.20
2023-01-31T18:13:59.060Z,17.30
2023-01-31T18:16:09.738Z,12.95
2023-01-31T18:18:14.867Z,14.75
2023-01-31T18:20:23.979Z,11.73
2023-01-31T18:22:29.468Z,11.60
2023-01-31T18:24:34.685Z,14.60
2023-01-31T18:26:39.685Z,12.65
2023-01-31T18:28:44.717Z,15.88
2023-01-31T18:30:49.763Z,10.90
2023-01-31T18:32:55.112Z,12.50
2023-01-31T18:35:00.245Z,15.98
2023-01-31T18:37:15.177Z,13.20
2023-01-31T18:39:20.427Z,10.23
2023-01-31T18:41:25.519Z,14.00
2023-01-31T18:43:33.325Z,13.23
2023-01-31T18:45:40.566Z,21.20
2023-01-31T18:47:45.543Z,13.30
2023-01-31T18:49:50.498Z,14.65
2023-01-31T18:51:55.437Z,10.40
2023-01-31T18:54:03.295Z,10.25
2023-01-31T18:56:11.060Z,10.98
2023-01-31T18:58:16.632Z,15.88
2023-01-31T19:00:24.026Z,14.77
2023-01-31T19:02:29.387Z,11.10
2023-01-31T19:04:34.810Z,9.93
2023-01-31T19:06:41.127Z,10.20
2023-01-31T19:08:49.795Z,12.57
2023-01-31T19:10:58.172Z,10.52
2023-01-31T19:13:03.119Z,10.00
2023-01-31T19:15:10.295Z,10.43
2023-01-31T19:17:15.874Z,8.52
2023-01-31T19:19:21.124Z,8.13
2023-01-31T19:21:28.609Z,8.18
2023-01-31T19:23:33.618Z,9.77
2023-01-31T19:25:41.426Z,9.50
2023-01-31T19:27:49.549Z,10.35
2023-01-31T19:29:54.588Z,10.82
2023-01-31T19:31:59.705Z,9.75
2023-01-31T19:34:07.259Z,11.88
2023-01-31T19:36:14.349Z,10.00
2023-01-31T19:38:19.337Z,10.13
2023-01-31T19:40:24.871Z,9.93
2023-01-31T19:42:30.431Z,9.52
2023-01-31T19:44:38.466Z,11.30
2023-01-31T19:46:44.051Z,12.27
2023-01-31T19:48:49.729Z,9.88
2023-01-31T19:50:54.731Z,10.23
2023-01-31T19:52:59.729Z,10.70
2023-01-31T19:55:04.794Z,15.63
2023-01-31T19:57:09.744Z,12.00
2023-01-31T19:59:16.833Z,9.43
2023-01-31T20:01:25.051Z,9.80
2023-01-31T20:03:31.041Z,11.10
2023-01-31T20:05:36.236Z,9.07
2023-01-31T20:07:42.615Z,12.45
2023-01-31T20:09:48.198Z,9.95
2023-01-31T20:11:54.057Z,8.75
2023-01-31T20:14:00.339Z,11.10
2023-01-31T20:16:09.916Z,7.93
2023-01-31T20:18:17.597Z,8.25
2023-01-31T20:20:23.663Z,12.15
2023-01-31T20:22:28.701Z,9.25
2023-01-31T20:24:33.688Z,12.50
2023-01-31T20:26:38.687Z,9.00
2023-01-31T20:28:45.424Z,9.02
2023-01-31T20:30:51.638Z,9.48
2023-01-31T20:32:56.658Z,13.25
2023-01-31T20:35:04.772Z,8.52
2023-01-31T20:37:09.740Z,14.13
2023-01-31T20:39:15.595Z,8.30
2023-01-31T20:41:22.213Z,8.13
2023-01-31T20:43:29.284Z,10.27
2023-01-31T20:45:35.869Z,9.95
2023-01-31T20:47:40.851Z,13.60
2023-01-31T20:49:45.890Z,14.43
2023-01-31T20:51:53.427Z,12.48
2023-01-31T20:53:59.575Z,11.50
2023-01-31T20:56:07.469Z,12.80
2023-01-31T20:58:12.472Z,11.35
2023-01-31T21:00:19.155Z,13.07
2023-01-31T21:02:24.356Z,11.43
2023-01-31T21:04:29.641Z,12.05
2023-01-31T21:06:34.623Z,13.85
2023-01-31T21:08:44.400Z,15.98
2023-01-31T21:10:53.323Z,9.60
2023-01-31T21:12:59.347Z,13.90
2023-01-31T21:15:05.639Z,15.10
2023-01-31T21:17:13.684Z,13.00
2023-01-31T21:19:18.862Z,14.93
2023-01-31T21:21:25.504Z,15.43
2023-01-31T21:23:30.451Z,13.57
2023-01-31T21:25:38.017Z,17.27
2023-01-31T21:27:43.195Z,15.18
2023-01-31T21:29:48.174Z,13.63
2023-01-31T21:31:53.224Z,13.20
2023-01-31T21:34:00.659Z,16.33
2023-01-31T21:36:12.015Z,16.75
2023-01-31T21:38:16.979Z,14.60
2023-01-31T21:40:22.785Z,13.25
2023-01-31T21:42:28.039Z,14.85
2023-01-31T21:44:33.119Z,13.55
2023-01-31T21:46:38.268Z,14.57
2023-01-31T21:48:43.908Z,17.48
2023-01-31T21:50:49.228Z,16.92
2023-01-31T21:52:54.959Z,16.95
2023-01-31T21:54:59.919Z,15.15
2023-01-31T21:57:04.875Z,17.48
2023-01-31T21:59:13.951Z,19.25
2023-01-31T22:01:21.924Z,15.00
2023-01-31T22:03:26.954Z,13.45
2023-01-31T22:05:31.989Z,17.30
2023-01-31T22:07:37.323Z,16.27
2023-01-31T22:09:42.707Z,12.85
2023-01-31T22:11:50.278Z,13.18
2023-01-31T22:13:56.655Z,14.65
2023-01-31T22:16:05.698Z,13.65
2023-01-31T22:18:10.698Z,19.48
2023-01-31T22:20:16.071Z,13.45
2023-01-31T22:22:21.289Z,14.15
2023-01-31T22:24:26.558Z,14.98
2023-01-31T22:26:33.930Z,14.52
2023-01-31T22:28:39.750Z,14.63
2023-01-31T22:30:45.465Z,14.45
2023-01-31T22:32:53.104Z,10.35
2023-01-31T22:34:58.791Z,10.75
2023-01-31T22:37:05.106Z,14.98
2023-01-31T22:39:10.802Z,12.85
2023-01-31T22:41:20.170Z,16.55
2023-01-31T22:43:25.383Z,13.35
2023-01-31T22:45:30.841Z,12.27
2023-01-31T22:47:35.960Z,15.30
2023-01-31T22:49:44.912Z,10.43
2023-01-31T22:51:50.271Z,17.95
2023-01-31T22:53:57.989Z,19.17
2023-01-31T22:56:04.583Z,15.57
2023-01-31T22:58:09.964Z,12.50
2023-01-31T23:00:16.343Z,16.60
2023-01-31T23:02:21.557Z,16.25
2023-01-31T23:04:27.202Z,14.77
2023-01-31T23:06:35.690Z,21.98
2023-01-31T23:08:41.983Z,14.60
2023-01-31T23:10:48.056Z,14.73
2023-01-31T23:12:53.363Z,18.08
2023-01-31T23:14:58.305Z,16.15
2023-01-31T23:17:16.079Z,18.05
2023-01-31T23:19:21.901Z,13.82
2023-01-31T23:21:26.885Z,18.88
2023-01-31T23:23:35.019Z,19.63
2023-01-31T23:25:42.435Z,16.52
2023-01-31T23:27:47.861Z,16.70
2023-01-31T23:29:52.839Z,21.58
2023-01-31T23:31:58.188Z,16.90
2023-01-31T23:34:06.247Z,14.90
2023-01-31T23:36:12.493Z,13.05
2023-01-31T23:38:17.571Z,12.55
2023-01-31T23:40:25.227Z,13.43
2023-01-31T23:42:30.531Z,19.80
2023-01-31T23:44:35.491Z,14.52
2023-01-31T23:46:40.514Z,14.68
2023-01-31T23:48:45.864Z,13.30
2023-01-31T23:50:50.868Z,14.90
2023-01-31T23:52:56.227Z,15.52
2023-01-31T23:55:01.257Z,15.13
2023-01-31T23:57:08.823Z,12.82
2023-01-31T23:59:14.101Z,10.75
